sensor_id;sensor_type;location;lat;lon;timestamp;P1;durP1;ratioP1;P2;durP2;ratioP2
15848;SDS011;8024;48.708;9.394;2023-09-12T00:01:04;8.03;;;6.63;;
15848;SDS011;8024;48.708;9.394;2023-09-12T00:03:33;8.23;;;6.87;;
15848;SDS011;8024;48.708;9.394;2023-09-12T00:06:01;9.17;;;6.73;;
15848;SDS011;8024;48.708;9.394;2023-09-12T00:08:29;10.87;;;7.47;;
15848;SDS011;8024;48.708;9.394;2023-09-12T00:11:02;9.70;;;7.93;;
15848;SDS011;8024;48.708;9.394;2023-09-12T00:13:31;7.67;;;6.97;;
15848;SDS011;8024;48.708;9.394;2023-09-12T00:15:58;10.43;;;7.67;;
15848;SDS011;8024;48.708;9.394;2023-09-12T00:18:28;8.57;;;6.97;;
15848;SDS011;8024;48.708;9.394;2023-09-12T00:20:55;8.70;;;7.33;;
15848;SDS011;8024;48.708;9.394;2023-09-12T00:23:24;8.07;;;7.27;;
15848;SDS011;8024;48.708;9.394;2023-09-12T00:25:51;10.73;;;7.80;;
15848;SDS011;8024;48.708;9.394;2023-09-12T00:28:18;9.07;;;7.53;;
15848;SDS011;8024;48.708;9.394;2023-09-12T00:30:46;8.73;;;7.03;;
15848;SDS011;8024;48.708;9.394;2023-09-12T00:33:13;9.10;;;7.30;;
15848;SDS011;8024;48.708;9.394;2023-09-12T00:35:41;8.40;;;7.60;;
15848;SDS011;8024;48.708;9.394;2023-09-12T00:38:10;10.50;;;7.63;;
15848;SDS011;8024;48.708;9.394;2023-09-12T00:40:37;9.67;;;7.17;;
15848;SDS011;8024;48.708;9.394;2023-09-12T00:43:04;8.20;;;6.80;;
15848;SDS011;8024;48.708;9.394;2023-09-12T00:45:32;12.37;;;7.23;;
15848;SDS011;8024;48.708;9.394;2023-09-12T00:47:59;8.80;;;6.27;;
15848;SDS011;8024;48.708;9.394;2023-09-12T00:50:28;9.60;;;6.87;;
15848;SDS011;8024;48.708;9.394;2023-09-12T00:52:58;8.00;;;6.87;;
15848;SDS011;8024;48.708;9.394;2023-09-12T00:55:25;7.90;;;7.10;;
15848;SDS011;8024;48.708;9.394;2023-09-12T00:57:53;10.60;;;7.00;;
15848;SDS011;8024;48.708;9.394;2023-09-12T01:00:20;8.03;;;6.60;;
15848;SDS011;8024;48.708;9.394;2023-09-12T01:02:48;9.57;;;6.30;;
15848;SDS011;8024;48.708;9.394;2023-09-12T01:05:17;9.47;;;6.57;;
15848;SDS011;8024;48.708;9.394;2023-09-12T01:07:45;8.77;;;6.90;;
15848;SDS011;8024;48.708;9.394;2023-09-12T01:10:13;8.23;;;6.60;;
15848;SDS011;8024;48.708;9.394;2023-09-12T01:12:41;7.27;;;6.53;;
15848;SDS011;8024;48.708;9.394;2023-09-12T01:15:08;7.87;;;6.23;;
15848;SDS011;8024;48.708;9.394;2023-09-12T01:17:39;7.67;;;6.87;;
15848;SDS011;8024;48.708;9.394;2023-09-12T01:20:07;8.40;;;6.97;;
15848;SDS011;8024;48.708;9.394;2023-09-12T01:22:40;7.17;;;6.47;;
15848;SDS011;8024;48.708;9.394;2023-09-12T01:28:29;10.83;;;6.93;;
15848;SDS011;8024;48.708;9.394;2023-09-12T01:31:00;8.03;;;6.73;;
15848;SDS011;8024;48.708;9.394;2023-09-12T01:33:28;9.33;;;6.83;;
15848;SDS011;8024;48.708;9.394;2023-09-12T01:35:55;10.17;;;7.27;;
15848;SDS011;8024;48.708;9.394;2023-09-12T01:38:23;7.57;;;6.27;;
15848;SDS011;8024;48.708;9.394;2023-09-12T01:40:50;7.77;;;6.87;;
15848;SDS011;8024;48.708;9.394;2023-09-12T01:43:19;7.33;;;6.60;;
15848;SDS011;8024;48.708;9.394;2023-09-12T01:45:49;7.13;;;6.37;;
15848;SDS011;8024;48.708;9.394;2023-09-12T01:48:19;14.87;;;8.10;;
15848;SDS011;8024;48.708;9.394;2023-09-12T01:50:49;10.03;;;7.37;;
15848;SDS011;8024;48.708;9.394;2023-09-12T01:53:16;8.70;;;6.20;;
15848;SDS011;8024;48.708;9.394;2023-09-12T01:55:45;8.60;;;6.87;;
15848;SDS011;8024;48.708;9.394;2023-09-12T01:58:13;8.20;;;6.23;;
15848;SDS011;8024;48.708;9.394;2023-09-12T02:00:41;10.00;;;6.80;;
15848;SDS011;8024;48.708;9.394;2023-09-12T02:03:09;6.97;;;5.97;;
15848;SDS011;8024;48.708;9.394;2023-09-12T02:05:36;6.87;;;6.07;;
15848;SDS011;8024;48.708;9.394;2023-09-12T02:08:04;7.33;;;6.40;;
15848;SDS011;8024;48.708;9.394;2023-09-12T02:10:31;7.37;;;6.07;;
15848;SDS011;8024;48.708;9.394;2023-09-12T02:12:58;7.50;;;6.57;;
15848;SDS011;8024;48.708;9.394;2023-09-12T02:15:25;9.87;;;6.60;;
15848;SDS011;8024;48.708;9.394;2023-09-12T02:17:52;10.67;;;7.00;;
15848;SDS011;8024;48.708;9.394;2023-09-12T02:20:21;9.43;;;6.67;;
15848;SDS011;8024;48.708;9.394;2023-09-12T02:22:48;9.13;;;7.20;;
15848;SDS011;8024;48.708;9.394;2023-09-12T02:25:15;9.77;;;6.80;;
15848;SDS011;8024;48.708;9.394;2023-09-12T02:27:43;13.47;;;7.67;;
15848;SDS011;8024;48.708;9.394;2023-09-12T02:30:10;8.47;;;7.20;;
15848;SDS011;8024;48.708;9.394;2023-09-12T02:32:37;8.77;;;6.93;;
15848;SDS011;8024;48.708;9.394;2023-09-12T02:35:04;8.00;;;7.20;;
15848;SDS011;8024;48.708;9.394;2023-09-12T02:37:33;8.27;;;6.50;;
15848;SDS011;8024;48.708;9.394;2023-09-12T02:40:00;8.87;;;7.43;;
15848;SDS011;8024;48.708;9.394;2023-09-12T02:42:29;9.67;;;7.37;;
15848;SDS011;8024;48.708;9.394;2023-09-12T02:44:56;7.47;;;6.37;;
15848;SDS011;8024;48.708;9.394;2023-09-12T02:47:23;7.40;;;6.73;;
15848;SDS011;8024;48.708;9.394;2023-09-12T02:49:50;11.77;;;8.07;;
15848;SDS011;8024;48.708;9.394;2023-09-12T02:52:17;8.77;;;7.87;;
15848;SDS011;8024;48.708;9.394;2023-09-12T02:54:46;9.27;;;7.17;;
15848;SDS011;8024;48.708;9.394;2023-09-12T02:57:13;8.13;;;7.33;;
15848;SDS011;8024;48.708;9.394;2023-09-12T02:59:40;8.87;;;7.53;;
15848;SDS011;8024;48.708;9.394;2023-09-12T03:02:07;11.67;;;7.73;;
15848;SDS011;8024;48.708;9.394;2023-09-12T03:04:35;8.83;;;8.03;;
15848;SDS011;8024;48.708;9.394;2023-09-12T03:07:02;8.17;;;7.30;;
15848;SDS011;8024;48.708;9.394;2023-09-12T03:09:29;8.87;;;7.03;;
15848;SDS011;8024;48.708;9.394;2023-09-12T03:11:58;10.13;;;7.60;;
15848;SDS011;8024;48.708;9.394;2023-09-12T03:14:27;8.70;;;7.53;;
15848;SDS011;8024;48.708;9.394;2023-09-12T03:16:55;9.57;;;7.80;;
15848;SDS011;8024;48.708;9.394;2023-09-12T03:19:22;7.93;;;6.90;;
15848;SDS011;8024;48.708;9.394;2023-09-12T03:21:49;10.50;;;7.43;;
15848;SDS011;8024;48.708;9.394;2023-09-12T03:24:16;10.53;;;7.90;;
15848;SDS011;8024;48.708;9.394;2023-09-12T03:26:46;9.67;;;8.00;;
15848;SDS011;8024;48.708;9.394;2023-09-12T03:29:14;10.13;;;8.57;;
15848;SDS011;8024;48.708;9.394;2023-09-12T03:31:41;9.33;;;7.67;;
15848;SDS011;8024;48.708;9.394;2023-09-12T03:34:08;9.13;;;7.17;;
15848;SDS011;8024;48.708;9.394;2023-09-12T03:36:36;11.03;;;7.70;;
15848;SDS011;8024;48.708;9.394;2023-09-12T03:39:03;9.23;;;8.10;;
15848;SDS011;8024;48.708;9.394;2023-09-12T03:41:33;10.80;;;8.00;;
15848;SDS011;8024;48.708;9.394;2023-09-12T03:44:00;8.03;;;7.17;;
15848;SDS011;8024;48.708;9.394;2023-09-12T03:46:29;10.43;;;8.13;;
15848;SDS011;8024;48.708;9.394;2023-09-12T03:48:56;9.87;;;7.77;;
15848;SDS011;8024;48.708;9.394;2023-09-12T03:51:23;13.03;;;7.90;;
15848;SDS011;8024;48.708;9.394;2023-09-12T03:53:51;11.27;;;7.53;;
15848;SDS011;8024;48.708;9.394;2023-09-12T03:56:18;8.77;;;6.90;;
15848;SDS011;8024;48.708;9.394;2023-09-12T03:58:45;12.20;;;7.47;;
15848;SDS011;8024;48.708;9.394;2023-09-12T04:01:12;10.00;;;7.83;;
15848;SDS011;8024;48.708;9.394;2023-09-12T04:03:41;8.90;;;7.33;;
15848;SDS011;8024;48.708;9.394;2023-09-12T04:06:08;8.13;;;7.27;;
15848;SDS011;8024;48.708;9.394;2023-09-12T04:08:35;8.03;;;7.23;;
15848;SDS011;8024;48.708;9.394;2023-09-12T04:11:02;8.03;;;7.17;;
15848;SDS011;8024;48.708;9.394;2023-09-12T04:13:29;9.20;;;7.80;;
15848;SDS011;8024;48.708;9.394;2023-09-12T04:15:56;8.00;;;7.20;;
15848;SDS011;8024;48.708;9.394;2023-09-12T04:18:24;11.10;;;7.30;;
15848;SDS011;8024;48.708;9.394;2023-09-12T04:20:52;11.63;;;8.03;;
15848;SDS011;8024;48.708;9.394;2023-09-12T04:23:20;11.20;;;6.73;;
15848;SDS011;8024;48.708;9.394;2023-09-12T04:25:47;10.30;;;6.87;;
15848;SDS011;8024;48.708;9.394;2023-09-12T04:28:14;7.90;;;6.73;;
15848;SDS011;8024;48.708;9.394;2023-09-12T04:30:41;8.40;;;7.60;;
15848;SDS011;8024;48.708;9.394;2023-09-12T04:33:09;7.93;;;7.13;;
15848;SDS011;8024;48.708;9.394;2023-09-12T04:35:36;8.53;;;6.27;;
15848;SDS011;8024;48.708;9.394;2023-09-12T04:38:04;9.33;;;6.77;;
15848;SDS011;8024;48.708;9.394;2023-09-12T04:40:31;11.47;;;7.10;;
15848;SDS011;8024;48.708;9.394;2023-09-12T04:42:58;9.20;;;6.53;;
15848;SDS011;8024;48.708;9.394;2023-09-12T04:45:26;8.53;;;6.97;;
15848;SDS011;8024;48.708;9.394;2023-09-12T04:47:53;10.10;;;6.73;;
15848;SDS011;8024;48.708;9.394;2023-09-12T04:50:20;8.30;;;6.93;;
15848;SDS011;8024;48.708;9.394;2023-09-12T04:52:47;7.83;;;6.60;;
15848;SDS011;8024;48.708;9.394;2023-09-12T04:55:15;7.90;;;6.20;;
15848;SDS011;8024;48.708;9.394;2023-09-12T04:57:43;7.37;;;6.47;;
15848;SDS011;8024;48.708;9.394;2023-09-12T05:00:10;6.87;;;6.20;;
15848;SDS011;8024;48.708;9.394;2023-09-12T05:02:38;6.67;;;5.43;;
15848;SDS011;8024;48.708;9.394;2023-09-12T05:05:06;8.77;;;6.57;;
15848;SDS011;8024;48.708;9.394;2023-09-12T05:07:33;6.77;;;6.07;;
15848;SDS011;8024;48.708;9.394;2023-09-12T05:10:01;8.73;;;6.27;;
15848;SDS011;8024;48.708;9.394;2023-09-12T05:12:30;8.10;;;6.23;;
15848;SDS011;8024;48.708;9.394;2023-09-12T05:14:57;7.53;;;6.37;;
15848;SDS011;8024;48.708;9.394;2023-09-12T05:17:25;7.13;;;6.37;;
15848;SDS011;8024;48.708;9.394;2023-09-12T05:19:52;9.10;;;6.77;;
15848;SDS011;8024;48.708;9.394;2023-09-12T05:22:19;9.03;;;7.20;;
15848;SDS011;8024;48.708;9.394;2023-09-12T05:24:46;11.27;;;7.30;;
15848;SDS011;8024;48.708;9.394;2023-09-12T05:27:14;7.30;;;6.33;;
15848;SDS011;8024;48.708;9.394;2023-09-12T05:29:43;8.23;;;6.10;;
15848;SDS011;8024;48.708;9.394;2023-09-12T05:32:10;8.43;;;6.10;;
15848;SDS011;8024;48.708;9.394;2023-09-12T05:34:37;7.73;;;5.90;;
15848;SDS011;8024;48.708;9.394;2023-09-12T05:37:04;7.83;;;6.47;;
15848;SDS011;8024;48.708;9.394;2023-09-12T05:39:31;6.17;;;5.13;;
15848;SDS011;8024;48.708;9.394;2023-09-12T05:41:58;7.53;;;5.60;;
15848;SDS011;8024;48.708;9.394;2023-09-12T05:44:26;9.07;;;6.07;;
15848;SDS011;8024;48.708;9.394;2023-09-12T05:46:54;8.47;;;6.27;;
15848;SDS011;8024;48.708;9.394;2023-09-12T05:49:21;7.10;;;6.40;;
15848;SDS011;8024;48.708;9.394;2023-09-12T05:51:48;8.33;;;6.07;;
15848;SDS011;8024;48.708;9.394;2023-09-12T05:54:15;10.90;;;6.30;;
15848;SDS011;8024;48.708;9.394;2023-09-12T05:56:44;7.67;;;6.50;;
15848;SDS011;8024;48.708;9.394;2023-09-12T05:59:13;9.33;;;6.77;;
15848;SDS011;8024;48.708;9.394;2023-09-12T06:01:40;8.37;;;6.53;;
15848;SDS011;8024;48.708;9.394;2023-09-12T06:04:08;6.77;;;5.93;;
15848;SDS011;8024;48.708;9.394;2023-09-12T06:06:36;10.33;;;7.23;;
15848;SDS011;8024;48.708;9.394;2023-09-12T06:09:03;8.07;;;7.03;;
15848;SDS011;8024;48.708;9.394;2023-09-12T06:11:31;7.37;;;6.50;;
15848;SDS011;8024;48.708;9.394;2023-09-12T06:13:58;8.70;;;6.30;;
15848;SDS011;8024;48.708;9.394;2023-09-12T06:16:25;12.27;;;7.40;;
15848;SDS011;8024;48.708;9.394;2023-09-12T06:18:52;8.53;;;7.17;;
15848;SDS011;8024;48.708;9.394;2023-09-12T06:21:21;10.50;;;6.10;;
15848;SDS011;8024;48.708;9.394;2023-09-12T06:23:52;10.73;;;7.03;;
15848;SDS011;8024;48.708;9.394;2023-09-12T06:26:35;8.83;;;7.27;;
15848;SDS011;8024;48.708;9.394;2023-09-12T06:29:02;9.07;;;7.30;;
15848;SDS011;8024;48.708;9.394;2023-09-12T06:31:29;8.60;;;6.23;;
15848;SDS011;8024;48.708;9.394;2023-09-12T06:33:56;8.80;;;7.00;;
15848;SDS011;8024;48.708;9.394;2023-09-12T06:36:25;11.70;;;6.90;;
15848;SDS011;8024;48.708;9.394;2023-09-12T06:38:54;9.77;;;7.03;;
15848;SDS011;8024;48.708;9.394;2023-09-12T06:41:21;10.97;;;6.70;;
15848;SDS011;8024;48.708;9.394;2023-09-12T06:43:48;8.93;;;6.17;;
15848;SDS011;8024;48.708;9.394;2023-09-12T06:46:16;8.50;;;6.27;;
15848;SDS011;8024;48.708;9.394;2023-09-12T06:48:43;9.90;;;6.77;;
15848;SDS011;8024;48.708;9.394;2023-09-12T06:51:11;9.07;;;6.90;;
15848;SDS011;8024;48.708;9.394;2023-09-12T06:53:39;11.50;;;7.03;;
15848;SDS011;8024;48.708;9.394;2023-09-12T06:56:07;10.47;;;6.60;;
15848;SDS011;8024;48.708;9.394;2023-09-12T06:58:34;10.03;;;6.90;;
15848;SDS011;8024;48.708;9.394;2023-09-12T07:01:02;11.33;;;6.83;;
15848;SDS011;8024;48.708;9.394;2023-09-12T07:03:30;8.27;;;6.23;;
15848;SDS011;8024;48.708;9.394;2023-09-12T07:05:57;10.63;;;7.20;;
15848;SDS011;8024;48.708;9.394;2023-09-12T07:08:24;7.17;;;6.47;;
15848;SDS011;8024;48.708;9.394;2023-09-12T07:10:53;8.30;;;6.43;;
15848;SDS011;8024;48.708;9.394;2023-09-12T07:13:22;10.33;;;6.67;;
15848;SDS011;8024;48.708;9.394;2023-09-12T07:15:49;7.80;;;6.33;;
15848;SDS011;8024;48.708;9.394;2023-09-12T07:18:16;11.07;;;7.60;;
15848;SDS011;8024;48.708;9.394;2023-09-12T07:20:44;9.07;;;7.53;;
15848;SDS011;8024;48.708;9.394;2023-09-12T07:23:11;7.87;;;6.97;;
15848;SDS011;8024;48.708;9.394;2023-09-12T07:25:39;8.53;;;6.10;;
15848;SDS011;8024;48.708;9.394;2023-09-12T07:28:08;11.23;;;7.27;;
15848;SDS011;8024;48.708;9.394;2023-09-12T07:30:35;10.10;;;7.57;;
15848;SDS011;8024;48.708;9.394;2023-09-12T07:33:03;9.37;;;7.53;;
15848;SDS011;8024;48.708;9.394;2023-09-12T07:35:31;9.20;;;7.57;;
15848;SDS011;8024;48.708;9.394;2023-09-12T07:37:58;9.30;;;6.57;;
15848;SDS011;8024;48.708;9.394;2023-09-12T07:40:26;10.60;;;7.40;;
15848;SDS011;8024;48.708;9.394;2023-09-12T07:42:54;10.70;;;7.60;;
15848;SDS011;8024;48.708;9.394;2023-09-12T07:45:22;9.20;;;7.60;;
15848;SDS011;8024;48.708;9.394;2023-09-12T07:47:50;10.40;;;7.70;;
15848;SDS011;8024;48.708;9.394;2023-09-12T07:50:17;9.37;;;7.33;;
15848;SDS011;8024;48.708;9.394;2023-09-12T07:52:44;9.40;;;8.37;;
15848;SDS011;8024;48.708;9.394;2023-09-12T07:55:11;12.23;;;7.83;;
15848;SDS011;8024;48.708;9.394;2023-09-12T07:57:38;14.23;;;9.23;;
15848;SDS011;8024;48.708;9.394;2023-09-12T08:00:06;12.57;;;8.17;;
15848;SDS011;8024;48.708;9.394;2023-09-12T08:02:36;8.93;;;7.57;;
15848;SDS011;8024;48.708;9.394;2023-09-12T08:05:03;7.40;;;6.20;;
15848;SDS011;8024;48.708;9.394;2023-09-12T08:07:31;8.07;;;6.07;;
15848;SDS011;8024;48.708;9.394;2023-09-12T08:09:58;9.87;;;7.43;;
15848;SDS011;8024;48.708;9.394;2023-09-12T08:12:26;7.80;;;7.00;;
15848;SDS011;8024;48.708;9.394;2023-09-12T08:14:54;10.47;;;7.10;;
15848;SDS011;8024;48.708;9.394;2023-09-12T08:17:21;9.23;;;7.53;;
15848;SDS011;8024;48.708;9.394;2023-09-12T08:19:50;11.63;;;7.43;;
15848;SDS011;8024;48.708;9.394;2023-09-12T08:22:17;8.03;;;6.63;;
15848;SDS011;8024;48.708;9.394;2023-09-12T08:24:45;11.90;;;7.00;;
15848;SDS011;8024;48.708;9.394;2023-09-12T08:27:12;9.27;;;7.63;;
15848;SDS011;8024;48.708;9.394;2023-09-12T08:29:39;8.77;;;7.20;;
15848;SDS011;8024;48.708;9.394;2023-09-12T08:32:09;8.00;;;7.20;;
15848;SDS011;8024;48.708;9.394;2023-09-12T08:34:36;12.10;;;7.83;;
15848;SDS011;8024;48.708;9.394;2023-09-12T08:37:05;7.97;;;6.83;;
15848;SDS011;8024;48.708;9.394;2023-09-12T08:39:39;8.10;;;6.30;;
15848;SDS011;8024;48.708;9.394;2023-09-12T08:42:08;8.73;;;7.83;;
15848;SDS011;8024;48.708;9.394;2023-09-12T08:44:39;8.40;;;6.87;;
15848;SDS011;8024;48.708;9.394;2023-09-12T08:47:07;9.63;;;7.17;;
15848;SDS011;8024;48.708;9.394;2023-09-12T08:49:35;8.40;;;7.17;;
15848;SDS011;8024;48.708;9.394;2023-09-12T08:52:04;13.97;;;6.97;;
15848;SDS011;8024;48.708;9.394;2023-09-12T08:54:32;10.27;;;7.17;;
15848;SDS011;8024;48.708;9.394;2023-09-12T08:56:59;8.80;;;6.87;;
15848;SDS011;8024;48.708;9.394;2023-09-12T08:59:29;9.53;;;6.90;;
15848;SDS011;8024;48.708;9.394;2023-09-12T09:01:58;7.10;;;6.40;;
15848;SDS011;8024;48.708;9.394;2023-09-12T09:04:26;9.30;;;7.37;;
15848;SDS011;8024;48.708;9.394;2023-09-12T09:06:57;7.63;;;6.80;;
15848;SDS011;8024;48.708;9.394;2023-09-12T09:09:27;8.40;;;6.57;;
15848;SDS011;8024;48.708;9.394;2023-09-12T09:11:54;7.27;;;6.57;;
15848;SDS011;8024;48.708;9.394;2023-09-12T09:14:21;8.17;;;6.93;;
15848;SDS011;8024;48.708;9.394;2023-09-12T09:16:48;8.33;;;6.37;;
15848;SDS011;8024;48.708;9.394;2023-09-12T09:19:16;9.80;;;7.17;;
15848;SDS011;8024;48.708;9.394;2023-09-12T09:21:44;7.50;;;6.77;;
15848;SDS011;8024;48.708;9.394;2023-09-12T09:24:13;7.23;;;6.50;;
15848;SDS011;8024;48.708;9.394;2023-09-12T09:26:45;7.93;;;7.13;;
15848;SDS011;8024;48.708;9.394;2023-09-12T09:29:14;7.77;;;6.97;;
15848;SDS011;8024;48.708;9.394;2023-09-12T09:31:42;7.80;;;6.53;;
15848;SDS011;8024;48.708;9.394;2023-09-12T09:34:11;8.77;;;6.60;;
15848;SDS011;8024;48.708;9.394;2023-09-12T09:36:42;8.47;;;7.60;;
15848;SDS011;8024;48.708;9.394;2023-09-12T09:39:10;9.17;;;7.03;;
15848;SDS011;8024;48.708;9.394;2023-09-12T09:41:38;8.20;;;7.07;;
15848;SDS011;8024;48.708;9.394;2023-09-12T09:44:08;7.70;;;6.90;;
15848;SDS011;8024;48.708;9.394;2023-09-12T09:46:35;7.70;;;6.33;;
15848;SDS011;8024;48.708;9.394;2023-09-12T09:49:04;7.93;;;7.23;;
15848;SDS011;8024;48.708;9.394;2023-09-12T09:51:32;8.90;;;7.50;;
15848;SDS011;8024;48.708;9.394;2023-09-12T09:54:07;9.50;;;7.67;;
15848;SDS011;8024;48.708;9.394;2023-09-12T09:56:37;8.10;;;7.37;;
15848;SDS011;8024;48.708;9.394;2023-09-12T09:59:15;8.67;;;7.10;;
15848;SDS011;8024;48.708;9.394;2023-09-12T10:01:43;7.47;;;6.77;;
15848;SDS011;8024;48.708;9.394;2023-09-12T10:04:11;8.80;;;7.13;;
15848;SDS011;8024;48.708;9.394;2023-09-12T10:06:38;7.03;;;6.33;;
15848;SDS011;8024;48.708;9.394;2023-09-12T10:09:07;10.20;;;7.20;;
15848;SDS011;8024;48.708;9.394;2023-09-12T10:11:37;7.73;;;7.00;;
15848;SDS011;8024;48.708;9.394;2023-09-12T10:14:05;8.17;;;6.80;;
15848;SDS011;8024;48.708;9.394;2023-09-12T10:16:35;7.23;;;6.53;;
15848;SDS011;8024;48.708;9.394;2023-09-12T10:19:08;7.47;;;6.87;;
15848;SDS011;8024;48.708;9.394;2023-09-12T10:21:41;7.13;;;6.50;;
15848;SDS011;8024;48.708;9.394;2023-09-12T10:24:13;7.87;;;6.93;;
15848;SDS011;8024;48.708;9.394;2023-09-12T10:26:42;7.70;;;7.00;;
15848;SDS011;8024;48.708;9.394;2023-09-12T10:29:10;7.13;;;6.50;;
15848;SDS011;8024;48.708;9.394;2023-09-12T10:31:41;7.20;;;6.57;;
15848;SDS011;8024;48.708;9.394;2023-09-12T10:34:10;6.85;;;6.25;;
15848;SDS011;8024;48.708;9.394;2023-09-12T10:36:41;6.93;;;6.20;;
15848;SDS011;8024;48.708;9.394;2023-09-12T10:39:09;8.87;;;6.50;;
15848;SDS011;8024;48.708;9.394;2023-09-12T10:41:39;7.37;;;6.57;;
15848;SDS011;8024;48.708;9.394;2023-09-12T10:44:07;7.73;;;6.93;;
15848;SDS011;8024;48.708;9.394;2023-09-12T10:46:36;6.95;;;5.80;;
15848;SDS011;8024;48.708;9.394;2023-09-12T10:49:07;6.82;;;6.32;;
15848;SDS011;8024;48.708;9.394;2023-09-12T10:51:37;9.20;;;6.97;;
15848;SDS011;8024;48.708;9.394;2023-09-12T10:54:05;10.15;;;7.70;;
15848;SDS011;8024;48.708;9.394;2023-09-12T10:56:33;7.93;;;6.25;;
15848;SDS011;8024;48.708;9.394;2023-09-12T10:59:10;8.38;;;6.35;;
15848;SDS011;8024;48.708;9.394;2023-09-12T11:01:39;8.90;;;7.15;;
15848;SDS011;8024;48.708;9.394;2023-09-12T11:07:16;6.80;;;6.13;;
15848;SDS011;8024;48.708;9.394;2023-09-12T11:10:19;8.05;;;6.65;;
15848;SDS011;8024;48.708;9.394;2023-09-12T11:12:48;8.80;;;7.40;;
15848;SDS011;8024;48.708;9.394;2023-09-12T11:15:16;7.05;;;6.28;;
15848;SDS011;8024;48.708;9.394;2023-09-12T11:17:44;8.38;;;6.63;;
15848;SDS011;8024;48.708;9.394;2023-09-12T11:20:13;9.77;;;6.35;;
15848;SDS011;8024;48.708;9.394;2023-09-12T11:22:41;7.05;;;5.47;;
15848;SDS011;8024;48.708;9.394;2023-09-12T11:25:15;6.85;;;5.13;;
15848;SDS011;8024;48.708;9.394;2023-09-12T11:27:44;6.40;;;5.38;;
15848;SDS011;8024;48.708;9.394;2023-09-12T11:30:12;6.07;;;5.35;;
15848;SDS011;8024;48.708;9.394;2023-09-12T11:32:40;8.52;;;5.75;;
15848;SDS011;8024;48.708;9.394;2023-09-12T11:35:14;6.00;;;5.30;;
15848;SDS011;8024;48.708;9.394;2023-09-12T11:37:47;7.53;;;6.20;;
15848;SDS011;8024;48.708;9.394;2023-09-12T11:40:16;5.22;;;4.82;;
15848;SDS011;8024;48.708;9.394;2023-09-12T11:42:48;5.50;;;5.00;;
15848;SDS011;8024;48.708;9.394;2023-09-12T11:45:16;5.57;;;4.90;;
15848;SDS011;8024;48.708;9.394;2023-09-12T11:47:45;6.63;;;5.68;;
15848;SDS011;8024;48.708;9.394;2023-09-12T11:50:26;6.28;;;4.78;;
15848;SDS011;8024;48.708;9.394;2023-09-12T11:53:01;5.40;;;4.90;;
15848;SDS011;8024;48.708;9.394;2023-09-12T11:55:30;5.97;;;5.10;;
15848;SDS011;8024;48.708;9.394;2023-09-12T11:57:58;6.03;;;4.82;;
15848;SDS011;8024;48.708;9.394;2023-09-12T12:00:25;6.03;;;5.00;;
15848;SDS011;8024;48.708;9.394;2023-09-12T12:02:54;7.05;;;5.28;;
15848;SDS011;8024;48.708;9.394;2023-09-12T12:05:21;6.22;;;5.00;;
15848;SDS011;8024;48.708;9.394;2023-09-12T12:07:50;5.90;;;5.30;;
15848;SDS011;8024;48.708;9.394;2023-09-12T12:10:18;7.93;;;5.10;;
15848;SDS011;8024;48.708;9.394;2023-09-12T12:12:45;6.65;;;5.03;;
15848;SDS011;8024;48.708;9.394;2023-09-12T12:15:13;4.97;;;4.47;;
15848;SDS011;8024;48.708;9.394;2023-09-12T12:17:41;5.55;;;4.65;;
15848;SDS011;8024;48.708;9.394;2023-09-12T12:20:08;5.45;;;4.28;;
15848;SDS011;8024;48.708;9.394;2023-09-12T12:22:37;7.97;;;4.30;;
15848;SDS011;8024;48.708;9.394;2023-09-12T12:25:09;5.32;;;4.03;;
15848;SDS011;8024;48.708;9.394;2023-09-12T12:27:37;5.60;;;4.30;;
15848;SDS011;8024;48.708;9.394;2023-09-12T12:30:05;6.25;;;4.25;;
15848;SDS011;8024;48.708;9.394;2023-09-12T12:32:34;5.55;;;4.05;;
15848;SDS011;8024;48.708;9.394;2023-09-12T12:35:02;5.57;;;3.92;;
15848;SDS011;8024;48.708;9.394;2023-09-12T12:37:29;7.88;;;4.57;;
15848;SDS011;8024;48.708;9.394;2023-09-12T12:39:57;4.97;;;4.40;;
15848;SDS011;8024;48.708;9.394;2023-09-12T12:42:32;6.65;;;4.22;;
15848;SDS011;8024;48.708;9.394;2023-09-12T12:45:00;3.95;;;3.65;;
15848;SDS011;8024;48.708;9.394;2023-09-12T12:47:28;6.30;;;4.13;;
15848;SDS011;8024;48.708;9.394;2023-09-12T12:49:57;4.97;;;3.95;;
15848;SDS011;8024;48.708;9.394;2023-09-12T12:52:24;4.53;;;4.18;;
15848;SDS011;8024;48.708;9.394;2023-09-12T12:54:52;5.00;;;3.67;;
15848;SDS011;8024;48.708;9.394;2023-09-12T12:57:19;6.72;;;4.22;;
15848;SDS011;8024;48.708;9.394;2023-09-12T12:59:48;4.43;;;4.03;;
15848;SDS011;8024;48.708;9.394;2023-09-12T13:02:16;5.22;;;3.38;;
15848;SDS011;8024;48.708;9.394;2023-09-12T13:04:44;4.38;;;4.00;;
15848;SDS011;8024;48.708;9.394;2023-09-12T13:07:11;6.25;;;4.13;;
15848;SDS011;8024;48.708;9.394;2023-09-12T13:09:38;5.07;;;4.57;;
15848;SDS011;8024;48.708;9.394;2023-09-12T13:12:07;5.20;;;4.03;;
15848;SDS011;8024;48.708;9.394;2023-09-12T13:14:35;6.22;;;4.60;;
15848;SDS011;8024;48.708;9.394;2023-09-12T13:17:04;5.45;;;4.03;;
15848;SDS011;8024;48.708;9.394;2023-09-12T13:19:31;6.47;;;4.93;;
15848;SDS011;8024;48.708;9.394;2023-09-12T13:21:59;5.40;;;3.80;;
15848;SDS011;8024;48.708;9.394;2023-09-12T13:24:26;4.53;;;4.05;;
15848;SDS011;8024;48.708;9.394;2023-09-12T13:26:53;3.90;;;3.60;;
15848;SDS011;8024;48.708;9.394;2023-09-12T13:29:20;5.28;;;4.78;;
15848;SDS011;8024;48.708;9.394;2023-09-12T13:31:47;5.00;;;4.50;;
15848;SDS011;8024;48.708;9.394;2023-09-12T13:34:16;4.72;;;4.03;;
15848;SDS011;8024;48.708;9.394;2023-09-12T13:36:43;4.43;;;4.05;;
15848;SDS011;8024;48.708;9.394;2023-09-12T13:39:10;4.80;;;4.22;;
15848;SDS011;8024;48.708;9.394;2023-09-12T13:41:37;5.40;;;4.65;;
15848;SDS011;8024;48.708;9.394;2023-09-12T13:44:05;4.72;;;4.32;;
15848;SDS011;8024;48.708;9.394;2023-09-12T13:46:32;4.82;;;4.10;;
15848;SDS011;8024;48.708;9.394;2023-09-12T13:48:59;6.93;;;4.80;;
15848;SDS011;8024;48.708;9.394;2023-09-12T13:51:29;4.30;;;3.90;;
15848;SDS011;8024;48.708;9.394;2023-09-12T13:53:56;5.30;;;4.80;;
15848;SDS011;8024;48.708;9.394;2023-09-12T13:56:24;4.95;;;4.53;;
15848;SDS011;8024;48.708;9.394;2023-09-12T13:58:51;4.65;;;4.22;;
15848;SDS011;8024;48.708;9.394;2023-09-12T14:01:18;4.35;;;3.95;;
15848;SDS011;8024;48.708;9.394;2023-09-12T14:03:46;6.20;;;4.80;;
15848;SDS011;8024;48.708;9.394;2023-09-12T14:06:13;5.72;;;4.70;;
15848;SDS011;8024;48.708;9.394;2023-09-12T14:08:41;5.07;;;4.45;;
15848;SDS011;8024;48.708;9.394;2023-09-12T14:11:08;4.45;;;4.05;;
15848;SDS011;8024;48.708;9.394;2023-09-12T14:13:36;4.93;;;4.30;;
15848;SDS011;8024;48.708;9.394;2023-09-12T14:16:03;5.95;;;4.25;;
15848;SDS011;8024;48.708;9.394;2023-09-12T14:18:30;5.20;;;4.35;;
15848;SDS011;8024;48.708;9.394;2023-09-12T14:20:58;5.28;;;4.55;;
15848;SDS011;8024;48.708;9.394;2023-09-12T14:23:25;4.65;;;3.95;;
15848;SDS011;8024;48.708;9.394;2023-09-12T14:25:53;5.78;;;4.78;;
15848;SDS011;8024;48.708;9.394;2023-09-12T14:28:20;6.18;;;4.22;;
15848;SDS011;8024;48.708;9.394;2023-09-12T14:30:48;5.30;;;4.47;;
15848;SDS011;8024;48.708;9.394;2023-09-12T14:33:15;7.05;;;4.50;;
15848;SDS011;8024;48.708;9.394;2023-09-12T14:35:43;5.57;;;5.00;;
15848;SDS011;8024;48.708;9.394;2023-09-12T14:38:10;7.10;;;4.75;;
15848;SDS011;8024;48.708;9.394;2023-09-12T14:40:38;5.18;;;4.68;;
15848;SDS011;8024;48.708;9.394;2023-09-12T14:43:06;5.05;;;4.55;;
15848;SDS011;8024;48.708;9.394;2023-09-12T14:45:33;5.15;;;4.65;;
15848;SDS011;8024;48.708;9.394;2023-09-12T14:48:00;5.45;;;4.38;;
15848;SDS011;8024;48.708;9.394;2023-09-12T14:50:28;5.50;;;4.95;;
15848;SDS011;8024;48.708;9.394;2023-09-12T14:52:56;5.28;;;4.88;;
15848;SDS011;8024;48.708;9.394;2023-09-12T14:55:23;6.32;;;4.65;;
15848;SDS011;8024;48.708;9.394;2023-09-12T14:57:50;5.22;;;4.80;;
15848;SDS011;8024;48.708;9.394;2023-09-12T15:00:21;5.82;;;4.78;;
15848;SDS011;8024;48.708;9.394;2023-09-12T15:02:48;4.90;;;4.50;;
15848;SDS011;8024;48.708;9.394;2023-09-12T15:05:15;5.30;;;4.80;;
15848;SDS011;8024;48.708;9.394;2023-09-12T15:07:43;6.32;;;5.65;;
15848;SDS011;8024;48.708;9.394;2023-09-12T15:10:10;5.22;;;4.72;;